sensor_id;sensor_type;location;lat;lon;timestamp;pressure;altitude;pressure_sealevel;temperature;humidity
49397;BME280;35615;41.410;2.194;2023-04-10T00:01:04;102034.69;;;19.04;45.82
49397;BME280;35615;41.410;2.194;2023-04-10T00:03:31;102027.09;;;19.15;45.72
49397;BME280;35615;41.410;2.194;2023-04-10T00:06:01;102034.94;;;19.15;45.73
49397;BME280;35615;41.410;2.194;2023-04-10T00:08:33;102031.28;;;19.07;45.87
49397;BME280;35615;41.410;2.194;2023-04-10T00:11:02;102035.16;;;19.24;45.57
49397;BME280;35615;41.410;2.194;2023-04-10T00:13:32;102024.47;;;19.15;45.89
49397;BME280;35615;41.410;2.194;2023-04-10T00:16:05;102031.59;;;19.21;45.97
49397;BME280;35615;41.410;2.194;2023-04-10T00:18:32;102027.66;;;19.02;46.97
49397;BME280;35615;41.410;2.194;2023-04-10T00:21:02;102033.94;;;19.08;47.60
49397;BME280;35615;41.410;2.194;2023-04-10T00:23:32;102028.22;;;18.89;48.94
49397;BME280;35615;41.410;2.194;2023-04-10T00:26:03;102030.34;;;19.05;48.35
49397;BME280;35615;41.410;2.194;2023-04-10T00:28:34;102017.84;;;18.93;49.64
49397;BME280;35615;41.410;2.194;2023-04-10T00:31:07;102028.00;;;18.79;50.56
49397;BME280;35615;41.410;2.194;2023-04-10T00:33:36;102020.16;;;18.81;50.95
49397;BME280;35615;41.410;2.194;2023-04-10T00:36:04;102018.75;;;18.95;49.71
49397;BME280;35615;41.410;2.194;2023-04-10T00:38:34;102004.25;;;19.08;48.58
49397;BME280;35615;41.410;2.194;2023-04-10T00:41:04;102000.59;;;19.01;48.49
49397;BME280;35615;41.410;2.194;2023-04-10T00:43:33;102001.53;;;19.05;48.16
49397;BME280;35615;41.410;2.194;2023-04-10T00:46:03;101998.91;;;19.05;48.41
49397;BME280;35615;41.410;2.194;2023-04-10T00:48:37;101994.47;;;19.01;47.87
49397;BME280;35615;41.410;2.194;2023-04-10T00:51:05;101995.25;;;18.97;47.68
49397;BME280;35615;41.410;2.194;2023-04-10T00:53:36;101998.06;;;19.06;47.16
49397;BME280;35615;41.410;2.194;2023-04-10T00:56:06;101998.88;;;19.03;46.84
49397;BME280;35615;41.410;2.194;2023-04-10T00:58:36;101988.41;;;19.03;46.55
49397;BME280;35615;41.410;2.194;2023-04-10T01:01:15;101988.41;;;19.03;46.22
49397;BME280;35615;41.410;2.194;2023-04-10T01:03:56;101988.09;;;18.90;46.43
49397;BME280;35615;41.410;2.194;2023-04-10T01:09:25;101982.22;;;19.00;46.23
49397;BME280;35615;41.410;2.194;2023-04-10T01:16:17;101975.09;;;18.94;45.93
49397;BME280;35615;41.410;2.194;2023-04-10T01:22:18;101971.25;;;18.78;46.29
49397;BME280;35615;41.410;2.194;2023-04-10T01:34:23;101955.53;;;18.44;46.50
49397;BME280;35615;41.410;2.194;2023-04-10T01:37:07;101956.66;;;18.53;46.26
49397;BME280;35615;41.410;2.194;2023-04-10T01:39:44;101951.25;;;18.47;46.44
49397;BME280;35615;41.410;2.194;2023-04-10T01:42:27;101959.47;;;18.28;46.68
49397;BME280;35615;41.410;2.194;2023-04-10T01:45:13;101953.47;;;18.32;46.57
49397;BME280;35615;41.410;2.194;2023-04-10T01:48:07;101954.38;;;18.33;46.45
49397;BME280;35615;41.410;2.194;2023-04-10T01:50:49;101952.41;;;18.24;47.02
49397;BME280;35615;41.410;2.194;2023-04-10T01:53:39;101952.63;;;18.33;46.57
49397;BME280;35615;41.410;2.194;2023-04-10T02:02:41;101930.81;;;18.33;46.83
49397;BME280;35615;41.410;2.194;2023-04-10T02:05:11;101937.81;;;18.34;46.83
49397;BME280;35615;41.410;2.194;2023-04-10T02:08:05;101933.00;;;18.16;47.66
49397;BME280;35615;41.410;2.194;2023-04-10T02:10:44;101931.28;;;18.18;47.61
49397;BME280;35615;41.410;2.194;2023-04-10T02:13:19;101928.06;;;18.28;47.31
49397;BME280;35615;41.410;2.194;2023-04-10T02:15:49;101925.88;;;18.10;47.94
49397;BME280;35615;41.410;2.194;2023-04-10T02:18:21;101923.56;;;18.21;47.57
49397;BME280;35615;41.410;2.194;2023-04-10T02:20:50;101926.84;;;18.14;47.75
49397;BME280;35615;41.410;2.194;2023-04-10T02:23:21;101930.59;;;18.23;47.66
49397;BME280;35615;41.410;2.194;2023-04-10T02:25:49;101925.59;;;18.33;47.47
49397;BME280;35615;41.410;2.194;2023-04-10T02:28:17;101931.44;;;18.22;48.09
49397;BME280;35615;41.410;2.194;2023-04-10T02:30:46;101917.03;;;18.40;47.54
49397;BME280;35615;41.410;2.194;2023-04-10T02:33:17;101917.88;;;18.39;47.84
49397;BME280;35615;41.410;2.194;2023-04-10T02:35:44;101921.38;;;18.39;47.82
49397;BME280;35615;41.410;2.194;2023-04-10T02:38:22;101912.81;;;18.45;47.54
49397;BME280;35615;41.410;2.194;2023-04-10T02:40:52;101914.28;;;18.34;48.12
49397;BME280;35615;41.410;2.194;2023-04-10T02:43:22;101910.75;;;18.32;48.43
49397;BME280;35615;41.410;2.194;2023-04-10T02:45:52;101913.31;;;18.30;48.43
49397;BME280;35615;41.410;2.194;2023-04-10T02:48:24;101924.84;;;18.38;48.13
49397;BME280;35615;41.410;2.194;2023-04-10T02:50:57;101921.44;;;18.41;48.09
49397;BME280;35615;41.410;2.194;2023-04-10T02:53:28;101919.59;;;18.38;48.34
49397;BME280;35615;41.410;2.194;2023-04-10T02:55:59;101920.41;;;18.34;48.47
49397;BME280;35615;41.410;2.194;2023-04-10T02:58:26;101927.28;;;18.31;48.59
49397;BME280;35615;41.410;2.194;2023-04-10T03:00:57;101928.84;;;18.24;48.89
49397;BME280;35615;41.410;2.194;2023-04-10T03:03:35;101914.19;;;18.29;48.91
49397;BME280;35615;41.410;2.194;2023-04-10T03:06:03;101926.91;;;18.17;49.21
49397;BME280;35615;41.410;2.194;2023-04-10T03:08:37;101919.31;;;18.26;48.95
49397;BME280;35615;41.410;2.194;2023-04-10T03:11:07;101916.28;;;18.09;49.80
49397;BME280;35615;41.410;2.194;2023-04-10T03:13:35;101915.50;;;18.13;49.36
49397;BME280;35615;41.410;2.194;2023-04-10T03:16:02;101910.13;;;18.07;49.64
49397;BME280;35615;41.410;2.194;2023-04-10T03:18:29;101919.88;;;18.14;49.69
49397;BME280;35615;41.410;2.194;2023-04-10T03:21:01;101915.25;;;18.04;50.12
49397;BME280;35615;41.410;2.194;2023-04-10T03:23:28;101922.28;;;18.07;49.76
49397;BME280;35615;41.410;2.194;2023-04-10T03:25:56;101912.06;;;18.16;49.45
49397;BME280;35615;41.410;2.194;2023-04-10T03:28:27;101919.56;;;18.02;50.45
49397;BME280;35615;41.410;2.194;2023-04-10T03:30:55;101913.66;;;18.09;50.14
49397;BME280;35615;41.410;2.194;2023-04-10T03:33:23;101914.25;;;17.99;50.36
49397;BME280;35615;41.410;2.194;2023-04-10T03:35:50;101916.84;;;17.97;50.57
49397;BME280;35615;41.410;2.194;2023-04-10T03:38:19;101908.28;;;18.05;50.19
49397;BME280;35615;41.410;2.194;2023-04-10T03:40:46;101910.03;;;18.04;50.65
49397;BME280;35615;41.410;2.194;2023-04-10T03:43:15;101913.13;;;17.89;51.02
49397;BME280;35615;41.410;2.194;2023-04-10T03:45:43;101918.59;;;17.98;50.83
49397;BME280;35615;41.410;2.194;2023-04-10T03:48:11;101919.66;;;18.07;50.63
49397;BME280;35615;41.410;2.194;2023-04-10T03:50:42;101910.44;;;17.86;51.36
49397;BME280;35615;41.410;2.194;2023-04-10T03:53:10;101914.31;;;18.00;50.84
49397;BME280;35615;41.410;2.194;2023-04-10T03:55:38;101914.22;;;17.97;51.13
49397;BME280;35615;41.410;2.194;2023-04-10T03:58:05;101913.41;;;18.00;50.96
49397;BME280;35615;41.410;2.194;2023-04-10T04:00:34;101908.31;;;18.06;50.71
49397;BME280;35615;41.410;2.194;2023-04-10T04:03:21;101901.34;;;18.05;50.77
49397;BME280;35615;41.410;2.194;2023-04-10T04:05:55;101909.06;;;18.00;51.23
49397;BME280;35615;41.410;2.194;2023-04-10T04:08:26;101900.19;;;17.95;51.22
49397;BME280;35615;41.410;2.194;2023-04-10T04:11:22;101896.06;;;18.04;50.92
49397;BME280;35615;41.410;2.194;2023-04-10T04:14:15;101897.72;;;18.00;51.03
49397;BME280;35615;41.410;2.194;2023-04-10T04:17:09;101895.97;;;17.99;51.13
49397;BME280;35615;41.410;2.194;2023-04-10T04:20:12;101901.78;;;17.89;51.63
49397;BME280;35615;41.410;2.194;2023-04-10T04:23:07;101900.69;;;17.81;52.18
49397;BME280;35615;41.410;2.194;2023-04-10T04:25:54;101900.97;;;17.91;51.42
49397;BME280;35615;41.410;2.194;2023-04-10T04:28:41;101899.81;;;17.80;51.96
49397;BME280;35615;41.410;2.194;2023-04-10T04:31:08;101898.16;;;17.84;51.53
49397;BME280;35615;41.410;2.194;2023-04-10T04:33:58;101895.50;;;17.82;51.45
49397;BME280;35615;41.410;2.194;2023-04-10T04:36:47;101901.25;;;17.69;51.93
49397;BME280;35615;41.410;2.194;2023-04-10T04:39:33;101899.19;;;17.59;52.50
49397;BME280;35615;41.410;2.194;2023-04-10T04:42:33;101897.81;;;17.71;51.69
49397;BME280;35615;41.410;2.194;2023-04-10T04:45:21;101894.22;;;17.68;51.99
49397;BME280;35615;41.410;2.194;2023-04-10T04:48:15;101903.09;;;17.73;51.80
49397;BME280;35615;41.410;2.194;2023-04-10T04:51:10;101901.53;;;17.80;51.41
49397;BME280;35615;41.410;2.194;2023-04-10T04:53:50;101909.31;;;17.77;51.13
49397;BME280;35615;41.410;2.194;2023-04-10T04:56:36;101901.94;;;17.63;51.84
49397;BME280;35615;41.410;2.194;2023-04-10T04:59:30;101905.38;;;17.62;51.61
49397;BME280;35615;41.410;2.194;2023-04-10T05:02:13;101914.94;;;17.62;51.20
49397;BME280;35615;41.410;2.194;2023-04-10T05:04:47;101916.88;;;17.37;51.58
49397;BME280;35615;41.410;2.194;2023-04-10T05:07:38;101914.44;;;17.43;51.17
49397;BME280;35615;41.410;2.194;2023-04-10T05:10:31;101913.91;;;17.55;50.47
49397;BME280;35615;41.410;2.194;2023-04-10T05:13:09;101926.81;;;17.51;50.12
49397;BME280;35615;41.410;2.194;2023-04-10T05:15:45;101930.97;;;17.42;50.50
49397;BME280;35615;41.410;2.194;2023-04-10T05:18:36;101929.19;;;17.41;50.52
49397;BME280;35615;41.410;2.194;2023-04-10T05:21:22;101932.81;;;17.47;50.29
49397;BME280;35615;41.410;2.194;2023-04-10T05:24:02;101925.16;;;17.53;49.66
49397;BME280;35615;41.410;2.194;2023-04-10T05:26:41;101916.31;;;17.49;49.50
49397;BME280;35615;41.410;2.194;2023-04-10T05:29:19;101909.56;;;17.56;49.65
49397;BME280;35615;41.410;2.194;2023-04-10T05:32:10;101914.41;;;17.42;49.54
49397;BME280;35615;41.410;2.194;2023-04-10T05:35:06;101926.34;;;17.64;48.84
49397;BME280;35615;41.410;2.194;2023-04-10T05:37:51;101945.06;;;17.49;49.07
49397;BME280;35615;41.410;2.194;2023-04-10T05:40:44;101949.56;;;17.53;48.99
49397;BME280;35615;41.410;2.194;2023-04-10T05:43:30;101950.47;;;17.25;49.01
49397;BME280;35615;41.410;2.194;2023-04-10T05:46:09;101944.75;;;17.38;48.60
49397;BME280;35615;41.410;2.194;2023-04-10T05:49:09;101945.19;;;17.52;48.27
49397;BME280;35615;41.410;2.194;2023-04-10T05:51:56;101956.22;;;17.72;47.83
49397;BME280;35615;41.410;2.194;2023-04-10T05:54:48;101970.53;;;17.56;47.90
49397;BME280;35615;41.410;2.194;2023-04-10T05:57:36;101966.41;;;17.63;47.79
49397;BME280;35615;41.410;2.194;2023-04-10T06:00:41;101972.50;;;17.63;47.45
49397;BME280;35615;41.410;2.194;2023-04-10T06:03:41;101972.63;;;17.68;47.68
49397;BME280;35615;41.410;2.194;2023-04-10T06:06:09;101971.50;;;17.88;47.24
49397;BME280;35615;41.410;2.194;2023-04-10T06:08:39;101975.06;;;17.92;47.02
49397;BME280;35615;41.410;2.194;2023-04-10T06:11:08;101972.66;;;17.99;47.02
49397;BME280;35615;41.410;2.194;2023-04-10T06:13:43;101972.03;;;18.08;46.84
49397;BME280;35615;41.410;2.194;2023-04-10T06:16:10;101968.63;;;18.11;47.07
49397;BME280;35615;41.410;2.194;2023-04-10T06:18:38;101958.56;;;17.94;46.98
49397;BME280;35615;41.410;2.194;2023-04-10T06:21:06;101955.47;;;18.08;46.77
49397;BME280;35615;41.410;2.194;2023-04-10T06:23:33;101954.13;;;18.23;46.68
49397;BME280;35615;41.410;2.194;2023-04-10T06:26:01;101965.66;;;18.30;46.52
49397;BME280;35615;41.410;2.194;2023-04-10T06:28:31;101968.19;;;18.28;46.35
49397;BME280;35615;41.410;2.194;2023-04-10T06:31:02;101972.03;;;18.41;46.28
49397;BME280;35615;41.410;2.194;2023-04-10T06:33:33;101966.50;;;18.29;46.22
49397;BME280;35615;41.410;2.194;2023-04-10T06:36:06;101966.00;;;18.44;46.05
49397;BME280;35615;41.410;2.194;2023-04-10T06:38:40;101970.06;;;18.33;46.18
49397;BME280;35615;41.410;2.194;2023-04-10T06:41:09;101966.66;;;18.37;45.78
49397;BME280;35615;41.410;2.194;2023-04-10T06:43:38;101981.75;;;18.47;45.70
49397;BME280;35615;41.410;2.194;2023-04-10T06:46:05;101989.75;;;18.51;45.33
49397;BME280;35615;41.410;2.194;2023-04-10T06:48:33;102001.53;;;18.69;45.01
49397;BME280;35615;41.410;2.194;2023-04-10T06:51:03;101996.69;;;18.51;45.12
49397;BME280;35615;41.410;2.194;2023-04-10T06:53:30;101984.13;;;18.38;45.11
49397;BME280;35615;41.410;2.194;2023-04-10T06:56:01;101978.28;;;18.48;44.70
49397;BME280;35615;41.410;2.194;2023-04-10T06:58:29;101971.81;;;18.67;44.63
49397;BME280;35615;41.410;2.194;2023-04-10T07:00:58;101977.03;;;18.65;44.34
49397;BME280;35615;41.410;2.194;2023-04-10T07:03:31;101984.28;;;18.77;44.55
49397;BME280;35615;41.410;2.194;2023-04-10T07:06:00;101981.03;;;18.85;44.52
49397;BME280;35615;41.410;2.194;2023-04-10T07:08:29;101979.94;;;18.77;44.85
49397;BME280;35615;41.410;2.194;2023-04-10T07:10:56;101981.34;;;18.99;44.94
49397;BME280;35615;41.410;2.194;2023-04-10T07:13:25;101971.75;;;19.00;44.81
49397;BME280;35615;41.410;2.194;2023-04-10T07:15:55;101970.28;;;19.12;44.64
49397;BME280;35615;41.410;2.194;2023-04-10T07:18:22;101968.47;;;19.08;44.85
49397;BME280;35615;41.410;2.194;2023-04-10T07:20:50;101961.81;;;19.24;44.46
49397;BME280;35615;41.410;2.194;2023-04-10T07:23:17;101977.78;;;19.35;44.28
49397;BME280;35615;41.410;2.194;2023-04-10T07:25:52;101979.59;;;19.00;44.31
49397;BME280;35615;41.410;2.194;2023-04-10T07:28:22;101972.19;;;19.20;44.39
49397;BME280;35615;41.410;2.194;2023-04-10T07:30:52;101985.72;;;19.39;43.83
49397;BME280;35615;41.410;2.194;2023-04-10T07:33:23;102001.75;;;19.52;43.61
49397;BME280;35615;41.410;2.194;2023-04-10T07:35:51;102002.53;;;19.49;43.41
49397;BME280;35615;41.410;2.194;2023-04-10T07:38:22;102006.03;;;19.50;43.02
49397;BME280;35615;41.410;2.194;2023-04-10T07:40:57;102001.75;;;19.52;42.79
49397;BME280;35615;41.410;2.194;2023-04-10T07:43:28;102012.59;;;19.68;42.81
49397;BME280;35615;41.410;2.194;2023-04-10T07:46:01;102020.50;;;19.70;42.47
49397;BME280;35615;41.410;2.194;2023-04-10T07:48:29;102008.16;;;19.64;42.76
49397;BME280;35615;41.410;2.194;2023-04-10T07:50:56;102016.97;;;19.69;42.72
49397;BME280;35615;41.410;2.194;2023-04-10T07:53:24;102005.41;;;19.60;42.51
49397;BME280;35615;41.410;2.194;2023-04-10T07:55:51;102011.75;;;19.71;42.58
49397;BME280;35615;41.410;2.194;2023-04-10T07:58:19;102014.63;;;19.83;42.56
49397;BME280;35615;41.410;2.194;2023-04-10T08:00:46;102022.84;;;19.98;41.97
49397;BME280;35615;41.410;2.194;2023-04-10T08:03:14;102015.69;;;19.91;42.17
49397;BME280;35615;41.410;2.194;2023-04-10T08:05:42;102015.22;;;20.12;42.03
49397;BME280;35615;41.410;2.194;2023-04-10T08:08:10;102016.69;;;19.96;42.49
49397;BME280;35615;41.410;2.194;2023-04-10T08:10:38;102018.94;;;20.23;41.87
49397;BME280;35615;41.410;2.194;2023-04-10T08:13:09;102014.41;;;20.16;42.00
49397;BME280;35615;41.410;2.194;2023-04-10T08:15:36;102010.59;;;20.43;41.91
49397;BME280;35615;41.410;2.194;2023-04-10T08:18:03;102027.44;;;20.55;41.66
49397;BME280;35615;41.410;2.194;2023-04-10T08:20:31;102024.88;;;20.62;41.37
49397;BME280;35615;41.410;2.194;2023-04-10T08:23:03;102027.81;;;20.78;41.33
49397;BME280;35615;41.410;2.194;2023-04-10T08:25:46;102016.47;;;20.81;41.32
49397;BME280;35615;41.410;2.194;2023-04-10T08:28:14;102027.41;;;21.07;41.32
49397;BME280;35615;41.410;2.194;2023-04-10T08:30:42;102027.81;;;21.33;40.59
49397;BME280;35615;41.410;2.194;2023-04-10T08:33:09;102032.19;;;21.31;40.57
49397;BME280;35615;41.410;2.194;2023-04-10T08:35:36;102021.13;;;21.55;40.14
49397;BME280;35615;41.410;2.194;2023-04-10T08:38:04;102026.44;;;21.61;39.29
49397;BME280;35615;41.410;2.194;2023-04-10T08:40:40;102031.97;;;21.82;39.36
49397;BME280;35615;41.410;2.194;2023-04-10T08:43:07;102033.09;;;22.01;39.24
49397;BME280;35615;41.410;2.194;2023-04-10T08:45:35;102042.75;;;22.05;39.24
49397;BME280;35615;41.410;2.194;2023-04-10T08:48:05;102046.00;;;21.81;38.69
49397;BME280;35615;41.410;2.194;2023-04-10T08:50:40;102038.47;;;22.09;38.12
49397;BME280;35615;41.410;2.194;2023-04-10T08:53:13;102039.59;;;22.30;37.93
49397;BME280;35615;41.410;2.194;2023-04-10T08:55:41;102037.81;;;22.29;37.91
49397;BME280;35615;41.410;2.194;2023-04-10T08:58:10;102041.59;;;22.56;38.20
49397;BME280;35615;41.410;2.194;2023-04-10T09:00:39;102035.31;;;22.42;37.42
49397;BME280;35615;41.410;2.194;2023-04-10T09:03:10;102046.53;;;22.24;36.94
49397;BME280;35615;41.410;2.194;2023-04-10T09:05:41;102046.63;;;22.33;36.39
49397;BME280;35615;41.410;2.194;2023-04-10T09:08:09;102058.25;;;22.52;36.17
49397;BME280;35615;41.410;2.194;2023-04-10T09:10:42;102063.47;;;22.49;35.90
49397;BME280;35615;41.410;2.194;2023-04-10T09:13:09;102062.78;;;22.68;36.23
49397;BME280;35615;41.410;2.194;2023-04-10T09:15:57;102061.09;;;22.76;35.87
49397;BME280;35615;41.410;2.194;2023-04-10T09:18:45;102058.75;;;23.08;35.50
49397;BME280;35615;41.410;2.194;2023-04-10T09:21:17;102063.97;;;23.04;34.80
49397;BME280;35615;41.410;2.194;2023-04-10T09:23:47;102064.19;;;23.31;35.09
49397;BME280;35615;41.410;2.194;2023-04-10T09:26:28;102051.16;;;23.57;34.28
49397;BME280;35615;41.410;2.194;2023-04-10T09:31:34;102059.91;;;23.50;36.20
49397;BME280;35615;41.410;2.194;2023-04-10T09:34:19;102067.00;;;23.59;35.64
49397;BME280;35615;41.410;2.194;2023-04-10T09:37:00;102073.28;;;23.73;36.31
49397;BME280;35615;41.410;2.194;2023-04-10T09:39:35;102074.09;;;23.69;36.64
49397;BME280;35615;41.410;2.194;2023-04-10T09:42:07;102079.44;;;23.76;37.37
49397;BME280;35615;41.410;2.194;2023-04-10T09:44:37;102074.00;;;23.52;38.17
49397;BME280;35615;41.410;2.194;2023-04-10T09:47:21;102080.25;;;23.68;38.81
49397;BME280;35615;41.410;2.194;2023-04-10T09:49:53;102079.22;;;23.41;39.53
49397;BME280;35615;41.410;2.194;2023-04-10T09:52:29;102074.09;;;23.64;39.25
49397;BME280;35615;41.410;2.194;2023-04-10T09:55:02;102084.53;;;23.51;37.51
49397;BME280;35615;41.410;2.194;2023-04-10T09:57:32;102080.31;;;23.75;38.44
49397;BME280;35615;41.410;2.194;2023-04-10T10:00:04;102087.34;;;23.78;38.47
49397;BME280;35615;41.410;2.194;2023-04-10T10:02:35;102083.84;;;23.81;38.55
49397;BME280;35615;41.410;2.194;2023-04-10T10:05:07;102087.31;;;23.72;38.61
49397;BME280;35615;41.410;2.194;2023-04-10T10:07:40;102081.19;;;23.74;38.21
49397;BME280;35615;41.410;2.194;2023-04-10T10:10:07;102083.00;;;23.89;38.24
49397;BME280;35615;41.410;2.194;2023-04-10T10:12:45;102083.97;;;24.14;37.84
49397;BME280;35615;41.410;2.194;2023-04-10T10:15:37;102081.44;;;24.32;37.80
49397;BME280;35615;41.410;2.194;2023-04-10T10:20:59;102081.50;;;24.61;38.18
49397;BME280;35615;41.410;2.194;2023-04-10T10:23:37;102078.81;;;24.48;38.08
49397;BME280;35615;41.410;2.194;2023-04-10T10:26:07;102081.50;;;24.66;38.03
49397;BME280;35615;41.410;2.194;2023-04-10T10:28:36;102090.28;;;24.60;37.93
49397;BME280;35615;41.410;2.194;2023-04-10T10:31:06;102086.78;;;24.75;37.62
49397;BME280;35615;41.410;2.194;2023-04-10T10:33:38;102087.69;;;24.73;37.73
49397;BME280;35615;41.410;2.194;2023-04-10T10:36:10;102095.59;;;24.79;38.03
49397;BME280;35615;41.410;2.194;2023-04-10T10:38:52;102100.88;;;24.82;37.26
49397;BME280;35615;41.410;2.194;2023-04-10T10:41:39;102092.94;;;24.94;37.10
49397;BME280;35615;41.410;2.194;2023-04-10T10:44:18;102092.09;;;24.95;37.02
49397;BME280;35615;41.410;2.194;2023-04-10T10:47:13;102090.34;;;24.83;37.27
49397;BME280;35615;41.410;2.194;2023-04-10T10:50:01;102096.47;;;24.79;37.58
49397;BME280;35615;41.410;2.194;2023-04-10T10:52:49;102084.16;;;24.72;37.56
49397;BME280;35615;41.410;2.194;2023-04-10T10:57:52;102099.16;;;25.14;37.54
49397;BME280;35615;41.410;2.194;2023-04-10T11:00:20;102109.72;;;25.04;38.05
49397;BME280;35615;41.410;2.194;2023-04-10T11:05:59;102107.13;;;25.07;38.03
49397;BME280;35615;41.410;2.194;2023-04-10T11:16:19;102073.53;;;25.47;37.53
49397;BME280;35615;41.410;2.194;2023-04-10T11:22:03;102076.16;;;25.62;36.67
49397;BME280;35615;41.410;2.194;2023-04-10T11:24:57;102076.13;;;25.79;36.15
49397;BME280;35615;41.410;2.194;2023-04-10T11:27:46;102070.91;;;25.41;36.90
49397;BME280;35615;41.410;2.194;2023-04-10T11:30:28;102048.81;;;25.72;36.33
49397;BME280;35615;41.410;2.194;2023-04-10T11:32:57;102056.81;;;25.42;35.95
49397;BME280;35615;41.410;2.194;2023-04-10T11:35:26;102060.22;;;25.82;36.09
49397;BME280;35615;41.410;2.194;2023-04-10T11:38:08;102058.28;;;26.15;36.56
49397;BME280;35615;41.410;2.194;2023-04-10T11:40:35;102055.78;;;25.89;36.29
49397;BME280;35615;41.410;2.194;2023-04-10T11:43:13;102051.44;;;25.69;34.81
49397;BME280;35615;41.410;2.194;2023-04-10T11:45:41;102054.84;;;25.99;34.43
49397;BME280;35615;41.410;2.194;2023-04-10T11:48:11;102055.72;;;26.05;34.44
49397;BME280;35615;41.410;2.194;2023-04-10T11:50:39;102053.13;;;25.89;34.76
49397;BME280;35615;41.410;2.194;2023-04-10T11:53:19;102052.00;;;26.35;33.48
49397;BME280;35615;41.410;2.194;2023-04-10T11:55:47;102050.75;;;26.87;32.57
49397;BME280;35615;41.410;2.194;2023-04-10T11:58:28;102063.78;;;27.14;31.91
49397;BME280;35615;41.410;2.194;2023-04-10T12:03:35;102059.56;;;26.90;31.59
49397;BME280;35615;41.410;2.194;2023-04-10T12:06:06;102056.44;;;27.42;31.17
49397;BME280;35615;41.410;2.194;2023-04-10T12:08:40;102047.34;;;27.63;29.86
49397;BME280;35615;41.410;2.194;2023-04-10T12:11:09;102049.06;;;27.69;30.96
49397;BME280;35615;41.410;2.194;2023-04-10T12:13:40;102048.41;;;27.47;30.28
49397;BME280;35615;41.410;2.194;2023-04-10T12:16:10;102033.19;;;27.66;29.36
49397;BME280;35615;41.410;2.194;2023-04-10T12:18:37;102029.13;;;27.33;29.92
49397;BME280;35615;41.410;2.194;2023-04-10T12:21:06;102037.16;;;27.25;29.61
49397;BME280;35615;41.410;2.194;2023-04-10T12:23:36;102036.88;;;27.51;30.55
49397;BME280;35615;41.410;2.194;2023-04-10T12:26:15;102031.72;;;27.39;31.62
49397;BME280;35615;41.410;2.194;2023-04-10T12:28:56;102037.00;;;27.37;30.93
49397;BME280;35615;41.410;2.194;2023-04-10T12:33:55;102039.16;;;27.82;32.60
49397;BME280;35615;41.410;2.194;2023-04-10T12:36:28;102048.34;;;27.55;33.58
49397;BME280;35615;41.410;2.194;2023-04-10T12:38:59;102038.66;;;27.47;33.40
49397;BME280;35615;41.410;2.194;2023-04-10T12:41:29;102038.81;;;27.35;34.64
49397;BME280;35615;41.410;2.194;2023-04-10T12:46:46;102043.84;;;26.68;35.53
49397;BME280;35615;41.410;2.194;2023-04-10T12:49:17;102053.19;;;25.76;37.64
49397;BME280;35615;41.410;2.194;2023-04-10T12:51:51;102053.25;;;25.44;38.10
49397;BME280;35615;41.410;2.194;2023-04-10T12:54:32;102055.84;;;25.66;37.28
49397;BME280;35615;41.410;2.194;2023-04-10T12:57:04;102060.31;;;25.38;38.00
49397;BME280;35615;41.410;2.194;2023-04-10T12:59:32;102061.19;;;25.49;37.91
49397;BME280;35615;41.410;2.194;2023-04-10T13:02:05;102061.06;;;25.96;37.71
49397;BME280;35615;41.410;2.194;2023-04-10T13:04:40;102062.84;;;25.90;37.52
49397;BME280;35615;41.410;2.194;2023-04-10T13:07:09;102071.59;;;26.02;37.42
49397;BME280;35615;41.410;2.194;2023-04-10T13:09:42;102070.66;;;26.14;37.28
49397;BME280;35615;41.410;2.194;2023-04-10T13:12:10;102065.31;;;26.25;36.21
49397;BME280;35615;41.410;2.194;2023-04-10T13:14:38;102063.66;;;26.02;37.57
49397;BME280;35615;41.410;2.194;2023-04-10T13:17:14;102067.31;;;25.75;37.50
49397;BME280;35615;41.410;2.194;2023-04-10T13:19:45;102058.44;;;25.89;37.77
49397;BME280;35615;41.410;2.194;2023-04-10T13:22:18;102061.75;;;26.32;38.01
49397;BME280;35615;41.410;2.194;2023-04-10T13:24:48;102060.03;;;26.22;38.30
49397;BME280;35615;41.410;2.194;2023-04-10T13:27:19;102058.03;;;26.59;37.91
49397;BME280;35615;41.410;2.194;2023-04-10T13:29:47;102050.25;;;26.38;37.71
49397;BME280;35615;41.410;2.194;2023-04-10T13:32:15;102052.03;;;26.26;37.85
49397;BME280;35615;41.410;2.194;2023-04-10T13:34:51;102056.84;;;25.28;40.59
49397;BME280;35615;41.410;2.194;2023-04-10T13:37:23;102058.59;;;24.97;40.94
49397;BME280;35615;41.410;2.194;2023-04-10T13:39:56;102051.53;;;24.41;42.12
49397;BME280;35615;41.410;2.194;2023-04-10T13:42:24;102051.50;;;24.38;42.11
49397;BME280;35615;41.410;2.194;2023-04-10T13:44:54;102047.13;;;24.83;41.27
49397;BME280;35615;41.410;2.194;2023-04-10T13:47:29;102040.09;;;25.29;40.17
49397;BME280;35615;41.410;2.194;2023-04-10T13:49:58;102033.75;;;25.84;39.48
49397;BME280;35615;41.410;2.194;2023-04-10T13:52:28;102041.59;;;26.06;38.91
49397;BME280;35615;41.410;2.194;2023-04-10T13:54:57;102031.91;;;25.99;39.02
49397;BME280;35615;41.410;2.194;2023-04-10T13:57:25;102034.69;;;25.63;39.62
49397;BME280;35615;41.410;2.194;2023-04-10T13:59:52;102015.88;;;26.21;38.88
49397;BME280;35615;41.410;2.194;2023-04-10T14:02:26;102031.88;;;26.04;39.70
49397;BME280;35615;41.410;2.194;2023-04-10T14:04:57;102027.31;;;26.29;39.24
49397;BME280;35615;41.410;2.194;2023-04-10T14:07:30;102030.91;;;26.19;39.69
49397;BME280;35615;41.410;2.194;2023-04-10T14:10:11;102025.75;;;25.97;39.34
49397;BME280;35615;41.410;2.194;2023-04-10T14:12:38;102037.25;;;25.89;39.27
49397;BME280;35615;41.410;2.194;2023-04-10T14:15:07;102033.78;;;25.77;39.59
49397;BME280;35615;41.410;2.194;2023-04-10T14:17:35;102033.63;;;26.03;38.74
49397;BME280;35615;41.410;2.194;2023-04-10T14:20:03;102026.56;;;26.09;37.67
49397;BME280;35615;41.410;2.194;2023-04-10T14:22:36;102023.03;;;26.03;37.66